createdAt,value
2018-06-20T00:00:37.298Z,24.8
2018-06-20T00:01:46.982Z,24.76
2018-06-20T00:02:56.151Z,24.68
2018-06-20T00:04:05.357Z,24.71
2018-06-20T00:05:14.266Z,24.69
2018-06-20T00:06:23.704Z,24.8
2018-06-20T00:07:33.274Z,24.69
2018-06-20T00:08:42.974Z,24.73
2018-06-20T00:09:52.646Z,24.67
2018-06-20T00:11:02.586Z,24.78
2018-06-20T00:12:12.043Z,24.67
2018-06-20T00:13:21.208Z,24.68
2018-06-20T00:14:29.865Z,24.77
2018-06-20T00:15:39.040Z,24.69
2018-06-20T00:16:48.988Z,24.71
2018-06-20T00:17:58.178Z,24.78
2018-06-20T00:19:07.919Z,24.76
2018-06-20T00:20:17.853Z,24.69
2018-06-20T00:21:26.496Z,24.68
2018-06-20T00:22:35.921Z,24.77
2018-06-20T00:23:45.584Z,24.69
2018-06-20T00:24:55.289Z,24.76
2018-06-20T00:26:04.197Z,24.8
2018-06-20T00:27:13.642Z,24.76
2018-06-20T00:28:23.060Z,24.81
2018-06-20T00:29:32.493Z,24.71
2018-06-20T00:30:41.664Z,24.73
2018-06-20T00:31:50.888Z,24.67
2018-06-20T00:33:00.568Z,24.68
2018-06-20T00:34:10.023Z,24.67
2018-06-20T00:35:19.232Z,24.67
2018-06-20T00:36:29.417Z,24.69
2018-06-20T00:37:39.097Z,24.77
2018-06-20T00:38:48.535Z,24.68
2018-06-20T00:39:58.236Z,24.68
2018-06-20T00:41:07.670Z,24.71
2018-06-20T00:42:16.883Z,24.68
2018-06-20T00:43:26.306Z,24.67
2018-06-20T00:44:35.491Z,24.77
2018-06-20T00:45:44.923Z,24.73
2018-06-20T00:46:54.361Z,24.76
2018-06-20T00:48:04.329Z,24.76
2018-06-20T00:49:13.509Z,24.76
2018-06-20T00:50:22.687Z,24.77
2018-06-20T00:51:32.368Z,24.64
2018-06-20T00:52:41.847Z,24.68
2018-06-20T00:53:50.490Z,24.73
2018-06-20T00:54:59.949Z,24.68
2018-06-20T00:56:09.878Z,24.69
2018-06-20T00:57:18.792Z,24.69
2018-06-20T00:58:27.962Z,24.77
2018-06-20T00:59:37.641Z,24.73
2018-06-20T01:00:47.066Z,24.68
2018-06-20T01:01:56.477Z,24.69
2018-06-20T01:03:05.647Z,24.71
2018-06-20T01:04:15.306Z,24.71
2018-06-20T01:05:24.222Z,24.71
2018-06-20T01:06:33.903Z,24.77
2018-06-20T01:07:43.053Z,24.73
2018-06-20T01:08:52.199Z,24.73
2018-06-20T01:10:01.366Z,24.68
2018-06-20T01:11:11.058Z,24.67
2018-06-20T01:12:20.499Z,24.68
2018-06-20T01:13:29.654Z,24.71
2018-06-20T01:14:38.827Z,24.65
2018-06-20T01:15:48.256Z,24.68
2018-06-20T01:16:57.939Z,24.69
2018-06-20T01:18:07.370Z,24.8
2018-06-20T01:19:16.536Z,24.71
2018-06-20T01:20:26.485Z,24.68
2018-06-20T01:21:35.923Z,24.69
2018-06-20T01:22:45.109Z,24.65
2018-06-20T01:23:54.542Z,24.68
2018-06-20T01:25:04.002Z,24.77
2018-06-20T01:26:13.426Z,24.68
2018-06-20T01:27:22.852Z,24.71
2018-06-20T01:28:32.270Z,24.71
2018-06-20T01:29:41.967Z,24.68
2018-06-20T01:30:51.399Z,24.71
2018-06-20T01:32:00.807Z,24.77
2018-06-20T01:33:10.478Z,24.73
2018-06-20T01:34:19.903Z,24.73
2018-06-20T01:35:29.060Z,24.77
2018-06-20T01:36:38.226Z,24.71
2018-06-20T01:37:47.636Z,24.68
2018-06-20T01:38:57.313Z,24.71
2018-06-20T01:40:06.485Z,24.68
2018-06-20T01:41:15.893Z,24.77
2018-06-20T01:42:25.568Z,24.67
2018-06-20T01:43:34.997Z,24.69
2018-06-20T01:44:44.422Z,24.71
2018-06-20T01:45:53.640Z,24.73
2018-06-20T01:47:03.337Z,24.73
2018-06-20T01:48:12.511Z,24.71
2018-06-20T01:49:21.684Z,24.71
2018-06-20T01:50:31.120Z,24.69
2018-06-20T01:51:40.549Z,24.6
2018-06-20T01:52:49.974Z,24.73
2018-06-20T01:53:59.150Z,24.68
2018-06-20T01:55:08.584Z,24.71
2018-06-20T01:56:18.335Z,24.69
2018-06-20T01:57:27.752Z,24.69
2018-06-20T01:58:37.176Z,24.71
2018-06-20T01:59:45.838Z,24.73
2018-06-20T02:00:55.522Z,24.71
2018-06-20T02:02:04.454Z,24.69
2018-06-20T02:03:14.133Z,24.65
2018-06-20T02:04:23.554Z,24.67
2018-06-20T02:05:32.730Z,24.64
2018-06-20T02:06:42.155Z,24.68
2018-06-20T02:07:51.081Z,24.69
2018-06-20T02:09:00.520Z,24.69
2018-06-20T02:10:10.198Z,24.68
2018-06-20T02:11:19.385Z,24.67
2018-06-20T02:12:28.819Z,24.69
2018-06-20T02:13:37.499Z,24.69
2018-06-20T02:14:46.917Z,24.71
2018-06-20T02:15:56.110Z,24.67
2018-06-20T02:17:05.327Z,24.76
2018-06-20T02:18:14.753Z,24.69
2018-06-20T02:19:23.929Z,24.71
2018-06-20T02:20:32.586Z,24.68
2018-06-20T02:21:42.249Z,24.68
2018-06-20T02:22:51.417Z,24.68
2018-06-20T02:24:01.107Z,24.71
2018-06-20T02:25:10.534Z,24.71
2018-06-20T02:26:19.461Z,24.69
2018-06-20T02:27:28.888Z,24.77
2018-06-20T02:28:38.583Z,24.73
2018-06-20T02:29:47.750Z,24.68
2018-06-20T02:30:57.431Z,24.68
2018-06-20T02:32:06.860Z,24.73
2018-06-20T02:33:16.265Z,24.69
2018-06-20T02:34:25.693Z,24.64
2018-06-20T02:35:35.381Z,24.77
2018-06-20T02:36:45.177Z,24.71
2018-06-20T02:37:54.670Z,24.69
2018-06-20T02:39:04.357Z,24.69
2018-06-20T02:40:13.547Z,24.71
2018-06-20T02:41:23.245Z,24.71
2018-06-20T02:42:32.941Z,24.71
2018-06-20T02:43:42.128Z,24.71
2018-06-20T02:44:51.320Z,24.67
2018-06-20T02:46:00.748Z,24.69
2018-06-20T02:47:10.441Z,24.71
2018-06-20T02:48:19.889Z,24.69
2018-06-20T02:49:29.344Z,24.73
2018-06-20T02:50:38.811Z,24.65
2018-06-20T02:51:48.490Z,24.69
2018-06-20T02:52:57.910Z,24.68
2018-06-20T02:54:07.621Z,24.61
2018-06-20T02:55:17.063Z,24.73
2018-06-20T02:56:26.752Z,24.69
2018-06-20T02:57:36.442Z,24.68
2018-06-20T02:58:45.865Z,24.73
2018-06-20T02:59:54.793Z,24.69
2018-06-20T03:01:03.986Z,24.69
2018-06-20T03:02:13.159Z,24.68
2018-06-20T03:03:22.596Z,24.67
2018-06-20T03:04:32.029Z,24.73
2018-06-20T03:05:41.466Z,24.69
2018-06-20T03:06:51.168Z,24.68
2018-06-20T03:08:00.853Z,24.65
2018-06-20T03:09:10.297Z,24.69
2018-06-20T03:10:19.469Z,24.67
2018-06-20T03:11:28.903Z,24.73
2018-06-20T03:12:38.343Z,24.65
2018-06-20T03:13:48.031Z,24.67
2018-06-20T03:14:57.731Z,24.73
2018-06-20T03:16:07.427Z,24.67
2018-06-20T03:17:17.132Z,24.68
2018-06-20T03:18:26.833Z,24.73
2018-06-20T03:19:36.516Z,24.62
2018-06-20T03:20:46.181Z,24.68
2018-06-20T03:21:56.141Z,24.71
2018-06-20T03:23:05.573Z,24.6
2018-06-20T03:24:15.254Z,24.69
2018-06-20T03:25:24.680Z,24.69
2018-06-20T03:26:34.611Z,24.64
2018-06-20T03:27:44.315Z,24.71
2018-06-20T03:28:53.738Z,24.73
2018-06-20T03:30:02.907Z,24.73
2018-06-20T03:31:12.339Z,24.65
2018-06-20T03:32:22.322Z,24.67
2018-06-20T03:33:31.750Z,24.71
2018-06-20T03:34:41.464Z,24.67
2018-06-20T03:35:50.658Z,24.69
2018-06-20T03:36:59.855Z,24.71
2018-06-20T03:38:09.024Z,24.69
2018-06-20T03:39:18.970Z,24.71
2018-06-20T03:40:28.148Z,24.65
2018-06-20T03:41:37.842Z,24.67
2018-06-20T03:42:47.258Z,24.68
2018-06-20T03:43:57.220Z,24.62
2018-06-20T03:45:06.646Z,24.68
2018-06-20T03:46:16.310Z,24.69
2018-06-20T03:47:25.992Z,24.68
2018-06-20T03:48:35.161Z,24.69
2018-06-20T03:49:44.330Z,24.71
2018-06-20T03:50:54.010Z,24.69
2018-06-20T03:52:03.704Z,24.68
2018-06-20T03:53:13.139Z,24.69
2018-06-20T03:54:22.820Z,24.69
2018-06-20T03:55:31.733Z,24.67
2018-06-20T03:56:40.900Z,24.73
2018-06-20T03:57:50.592Z,24.71
2018-06-20T03:59:00.268Z,24.68
2018-06-20T04:00:09.957Z,24.71
2018-06-20T04:01:19.665Z,24.67
2018-06-20T04:02:29.286Z,24.68
2018-06-20T04:03:38.719Z,24.68
2018-06-20T04:04:47.899Z,24.69
2018-06-20T04:05:57.357Z,24.73
2018-06-20T04:07:06.526Z,24.64
2018-06-20T04:08:16.214Z,24.64
2018-06-20T04:09:25.634Z,24.73
2018-06-20T04:10:34.799Z,24.67
2018-06-20T04:11:43.986Z,24.67
2018-06-20T04:12:53.110Z,24.65
2018-06-20T04:14:02.296Z,24.69
2018-06-20T04:15:11.739Z,24.69
2018-06-20T04:16:20.649Z,24.68
2018-06-20T04:17:29.853Z,24.68
2018-06-20T04:18:38.776Z,24.68
2018-06-20T04:19:48.206Z,24.67
2018-06-20T04:20:57.385Z,24.67
2018-06-20T04:22:07.330Z,24.71
2018-06-20T04:23:16.753Z,24.69
2018-06-20T04:24:26.181Z,24.65
2018-06-20T04:25:35.361Z,24.65
2018-06-20T04:26:44.531Z,24.64
2018-06-20T04:27:53.956Z,24.69
2018-06-20T04:29:02.881Z,24.65
2018-06-20T04:30:12.610Z,24.68
2018-06-20T04:31:22.294Z,24.62
2018-06-20T04:32:31.723Z,24.67
2018-06-20T04:33:41.143Z,24.69
2018-06-20T04:34:50.515Z,24.69
2018-06-20T04:36:00.306Z,24.62
2018-06-20T04:37:09.485Z,24.6
2018-06-20T04:38:18.389Z,24.68
2018-06-20T04:39:27.802Z,24.67
2018-06-20T04:40:37.022Z,24.68
2018-06-20T04:41:46.699Z,24.69
2018-06-20T04:42:55.606Z,24.67
2018-06-20T04:44:05.296Z,24.67
2018-06-20T04:45:14.213Z,24.65
2018-06-20T04:46:23.377Z,24.71
2018-06-20T04:47:32.790Z,24.65
2018-06-20T04:48:42.455Z,24.73
2018-06-20T04:49:51.887Z,24.76
2018-06-20T04:51:01.042Z,24.68
2018-06-20T04:52:10.759Z,24.73
2018-06-20T04:53:19.682Z,24.68
2018-06-20T04:54:29.195Z,24.67
2018-06-20T04:55:39.003Z,24.64
2018-06-20T04:56:48.597Z,24.61
2018-06-20T04:57:58.281Z,24.68
2018-06-20T04:59:07.971Z,24.73
2018-06-20T05:00:17.150Z,24.67
2018-06-20T05:01:26.594Z,24.71
2018-06-20T05:02:35.500Z,24.77
2018-06-20T05:03:44.922Z,24.69
2018-06-20T05:04:54.081Z,24.68
2018-06-20T05:06:02.992Z,24.64
2018-06-20T05:07:12.417Z,24.65
2018-06-20T05:08:21.822Z,24.73
2018-06-20T05:09:31.003Z,24.69
2018-06-20T05:10:40.165Z,24.68
2018-06-20T05:11:49.354Z,24.71
2018-06-20T05:12:59.040Z,24.73
2018-06-20T05:14:08.521Z,24.76
2018-06-20T05:15:18.207Z,24.71
2018-06-20T05:16:27.122Z,24.71
2018-06-20T05:17:36.275Z,24.76
2018-06-20T05:18:46.226Z,24.73
2018-06-20T05:19:55.391Z,24.71
2018-06-20T05:21:04.568Z,24.69
2018-06-20T05:22:13.740Z,24.71
2018-06-20T05:23:23.153Z,24.69
2018-06-20T05:24:32.296Z,24.73
2018-06-20T05:25:41.464Z,24.71
2018-06-20T05:26:50.623Z,24.67
2018-06-20T05:27:59.819Z,24.73
2018-06-20T05:29:09.264Z,24.73
2018-06-20T05:30:18.445Z,24.71
2018-06-20T05:31:28.146Z,24.76
2018-06-20T05:32:37.603Z,24.71
2018-06-20T05:33:46.510Z,24.77
2018-06-20T05:34:55.687Z,24.67
2018-06-20T05:36:05.146Z,24.76
2018-06-20T05:37:14.352Z,24.69
2018-06-20T05:38:23.024Z,24.69
2018-06-20T05:39:32.705Z,24.73
2018-06-20T05:40:41.879Z,24.73
2018-06-20T05:41:51.697Z,24.67
2018-06-20T05:43:01.518Z,24.69
2018-06-20T05:44:11.190Z,24.73
2018-06-20T05:45:20.873Z,24.67
2018-06-20T05:46:29.789Z,24.69
2018-06-20T05:47:38.953Z,24.73
2018-06-20T05:48:48.635Z,24.67
2018-06-20T05:49:58.346Z,24.69
2018-06-20T05:51:07.496Z,24.68
2018-06-20T05:52:16.941Z,24.65
2018-06-20T05:53:26.389Z,24.73
2018-06-20T05:54:35.825Z,24.77
2018-06-20T05:55:45.256Z,24.73
2018-06-20T05:56:54.430Z,24.73
2018-06-20T05:58:03.597Z,24.68
2018-06-20T05:59:13.036Z,24.73
2018-06-20T06:00:22.975Z,24.67
2018-06-20T06:01:33.037Z,24.73
2018-06-20T06:02:41.962Z,24.69
2018-06-20T06:03:51.389Z,24.71
2018-06-20T06:05:00.813Z,24.71
2018-06-20T06:06:10.305Z,24.67
2018-06-20T06:07:19.764Z,24.69
2018-06-20T06:08:28.936Z,24.68
2018-06-20T06:09:38.608Z,24.71
2018-06-20T06:10:47.519Z,24.67
2018-06-20T06:11:56.757Z,24.71
2018-06-20T06:13:05.927Z,24.69
2018-06-20T06:14:15.103Z,24.71
2018-06-20T06:15:24.014Z,24.71
2018-06-20T06:16:33.475Z,24.68
2018-06-20T06:17:43.271Z,24.69
2018-06-20T06:18:52.947Z,24.71
2018-06-20T06:20:02.690Z,24.67
2018-06-20T06:21:12.363Z,24.68
2018-06-20T06:22:21.798Z,24.68
2018-06-20T06:23:31.214Z,24.68
2018-06-20T06:24:40.441Z,24.76
2018-06-20T06:25:49.349Z,24.68
2018-06-20T06:26:59.040Z,24.69
2018-06-20T06:28:08.722Z,24.76
2018-06-20T06:29:18.148Z,24.68
2018-06-20T06:30:27.592Z,24.68
2018-06-20T06:31:37.612Z,24.68
2018-06-20T06:32:46.541Z,24.73
2018-06-20T06:33:55.747Z,24.77
2018-06-20T06:35:04.679Z,24.69
2018-06-20T06:36:13.879Z,24.78
2018-06-20T06:37:23.097Z,24.67
2018-06-20T06:38:32.058Z,24.68
2018-06-20T06:39:41.764Z,24.76
2018-06-20T06:40:51.209Z,24.69
2018-06-20T06:42:00.875Z,24.76
2018-06-20T06:43:10.048Z,24.73
2018-06-20T06:44:19.728Z,24.69
2018-06-20T06:45:29.165Z,24.76
2018-06-20T06:46:38.123Z,24.78
2018-06-20T06:47:47.040Z,24.73
2018-06-20T06:48:56.481Z,24.69
2018-06-20T06:50:06.507Z,24.76
2018-06-20T06:51:16.554Z,24.8
2018-06-20T06:52:25.730Z,24.76
2018-06-20T06:53:35.175Z,24.71
2018-06-20T06:54:44.885Z,24.76
2018-06-20T06:55:54.412Z,24.69
2018-06-20T06:57:04.521Z,24.78
2018-06-20T06:58:13.433Z,24.68
2018-06-20T06:59:22.599Z,24.78
2018-06-20T07:00:32.267Z,24.77
2018-06-20T07:01:41.669Z,24.67
2018-06-20T07:02:50.832Z,24.78
2018-06-20T07:04:00.522Z,24.71
2018-06-20T07:05:09.694Z,24.77
2018-06-20T07:06:19.624Z,24.8
2018-06-20T07:07:29.085Z,24.76
2018-06-20T07:08:38.083Z,24.8
2018-06-20T07:09:47.803Z,24.8
2018-06-20T07:10:57.498Z,24.8
2018-06-20T07:12:07.183Z,24.73
2018-06-20T07:13:16.354Z,24.77
2018-06-20T07:14:26.037Z,24.77
2018-06-20T07:15:35.662Z,24.77
2018-06-20T07:16:45.092Z,24.81
2018-06-20T07:17:54.266Z,24.77
2018-06-20T07:19:03.689Z,24.77
2018-06-20T07:20:13.396Z,24.78
2018-06-20T07:21:22.825Z,24.81
2018-06-20T07:22:32.029Z,24.8
2018-06-20T07:23:42.014Z,24.83
2018-06-20T07:24:51.163Z,24.83
2018-06-20T07:26:00.331Z,24.78
2018-06-20T07:27:09.767Z,24.69
2018-06-20T07:28:18.928Z,24.87
2018-06-20T07:29:28.412Z,24.78
2018-06-20T07:30:38.516Z,24.84
2018-06-20T07:31:47.941Z,24.87
2018-06-20T07:32:57.111Z,24.77
2018-06-20T07:34:06.970Z,24.81
2018-06-20T07:35:17.066Z,24.77
2018-06-20T07:36:26.759Z,24.81
2018-06-20T07:37:36.576Z,24.76
2018-06-20T07:38:46.269Z,24.81
2018-06-20T07:39:55.953Z,24.8
2018-06-20T07:41:05.648Z,24.76
2018-06-20T07:42:15.077Z,24.81
2018-06-20T07:43:24.547Z,24.76
2018-06-20T07:44:33.461Z,24.76
2018-06-20T07:45:42.373Z,24.78
2018-06-20T07:46:51.531Z,24.76
2018-06-20T07:48:00.894Z,24.81
2018-06-20T07:49:10.071Z,24.77
2018-06-20T07:50:19.246Z,24.78
2018-06-20T07:51:28.922Z,24.81
2018-06-20T07:52:38.388Z,24.8
2018-06-20T07:53:47.825Z,24.71
2018-06-20T07:54:57.261Z,24.8
2018-06-20T07:56:06.970Z,24.78
2018-06-20T07:57:16.922Z,24.76
2018-06-20T07:58:26.620Z,24.77
2018-06-20T07:59:36.155Z,24.77
2018-06-20T08:00:45.788Z,24.77
2018-06-20T08:01:55.821Z,24.8
2018-06-20T08:03:05.548Z,24.71
2018-06-20T08:04:15.533Z,24.8
2018-06-20T08:05:24.888Z,24.88
2018-06-20T08:06:33.896Z,24.83
2018-06-20T08:07:43.428Z,24.81
2018-06-20T08:08:52.415Z,24.8
2018-06-20T08:10:01.648Z,24.77
2018-06-20T08:11:11.363Z,24.84
2018-06-20T08:12:20.923Z,24.78
2018-06-20T08:13:30.438Z,24.83
2018-06-20T08:14:39.676Z,24.71
2018-06-20T08:15:49.198Z,24.83
2018-06-20T08:16:58.395Z,24.87
2018-06-20T08:18:07.950Z,24.8
2018-06-20T08:19:17.649Z,24.81
2018-06-20T08:20:26.858Z,24.73
2018-06-20T08:21:36.286Z,24.83
2018-06-20T08:22:45.464Z,24.78
2018-06-20T08:23:55.198Z,24.81
2018-06-20T08:25:04.347Z,24.78
2018-06-20T08:26:13.519Z,24.78
2018-06-20T08:27:22.684Z,24.8
2018-06-20T08:28:32.370Z,24.83
2018-06-20T08:29:41.543Z,24.78
2018-06-20T08:30:51.508Z,24.77
2018-06-20T08:32:00.945Z,24.78
2018-06-20T08:33:10.884Z,24.8
2018-06-20T08:34:19.789Z,24.8
2018-06-20T08:35:29.482Z,24.84
2018-06-20T08:36:39.196Z,24.81
2018-06-20T08:37:48.102Z,24.77
2018-06-20T08:38:57.797Z,24.73
2018-06-20T08:40:06.968Z,24.78
2018-06-20T08:41:16.440Z,24.83
2018-06-20T08:42:26.167Z,24.78
2018-06-20T08:43:36.302Z,24.83
2018-06-20T08:44:46.248Z,24.77
2018-06-20T08:45:55.918Z,24.83
2018-06-20T08:47:05.610Z,24.77
2018-06-20T08:48:15.039Z,24.81
2018-06-20T08:49:24.461Z,24.8
2018-06-20T08:50:33.895Z,24.85
2018-06-20T08:51:43.340Z,24.83
2018-06-20T08:52:52.501Z,24.81
2018-06-20T08:54:02.015Z,24.73
2018-06-20T08:55:11.432Z,24.9
2018-06-20T08:56:20.083Z,24.77
2018-06-20T08:57:29.522Z,24.84
2018-06-20T08:58:38.940Z,24.8
2018-06-20T08:59:48.174Z,24.81
2018-06-20T09:00:57.592Z,24.81
2018-06-20T09:02:07.137Z,24.81
2018-06-20T09:03:16.455Z,24.9
2018-06-20T09:04:26.145Z,24.81
2018-06-20T09:05:35.877Z,24.81
2018-06-20T09:06:44.812Z,24.85
2018-06-20T09:07:54.232Z,24.81
2018-06-20T09:09:03.149Z,24.8
2018-06-20T09:10:12.582Z,24.8
2018-06-20T09:11:21.780Z,24.8
2018-06-20T09:12:30.974Z,24.83
2018-06-20T09:13:40.252Z,24.87
2018-06-20T09:14:49.417Z,24.8
2018-06-20T09:15:58.836Z,24.81
2018-06-20T09:17:08.529Z,24.87
2018-06-20T09:18:17.963Z,24.84
2018-06-20T09:19:27.774Z,24.83
2018-06-20T09:20:37.609Z,24.84
2018-06-20T09:21:46.754Z,24.91
2018-06-20T09:22:55.922Z,24.8
2018-06-20T09:24:05.616Z,24.81
2018-06-20T09:25:15.296Z,24.84
2018-06-20T09:26:24.970Z,24.83
2018-06-20T09:27:34.657Z,24.81
2018-06-20T09:28:43.553Z,24.8
2018-06-20T09:29:52.983Z,24.81
2018-06-20T09:31:02.721Z,24.83
2018-06-20T09:32:12.164Z,24.85
2018-06-20T09:33:21.060Z,24.84
2018-06-20T09:34:30.466Z,24.8
2018-06-20T09:35:39.882Z,24.85
2018-06-20T09:36:49.595Z,24.83
2018-06-20T09:37:59.540Z,24.87
2018-06-20T09:39:08.961Z,24.83
2018-06-20T09:40:18.676Z,24.9
2018-06-20T09:41:27.871Z,24.8
2018-06-20T09:42:37.277Z,24.81
2018-06-20T09:43:46.735Z,24.8
2018-06-20T09:44:55.917Z,24.81
2018-06-20T09:46:05.068Z,24.81
2018-06-20T09:47:14.475Z,24.81
2018-06-20T09:48:23.899Z,24.84
2018-06-20T09:49:33.589Z,24.8
2018-06-20T09:50:43.281Z,24.8
2018-06-20T09:51:53.213Z,24.81
2018-06-20T09:53:02.360Z,24.91
2018-06-20T09:54:11.318Z,24.8
2018-06-20T09:55:20.428Z,24.84
2018-06-20T09:56:29.590Z,24.8
2018-06-20T09:57:39.305Z,24.81
2018-06-20T09:58:48.732Z,24.8
2018-06-20T09:59:58.419Z,24.77
2018-06-20T10:01:08.102Z,24.8
2018-06-20T10:02:17.581Z,24.78
2018-06-20T10:03:27.280Z,24.77
2018-06-20T10:04:36.710Z,24.83
2018-06-20T10:05:45.863Z,24.84
2018-06-20T10:06:55.462Z,24.77
2018-06-20T10:08:04.619Z,24.84
2018-06-20T10:09:14.046Z,24.8
2018-06-20T10:10:22.958Z,24.81
2018-06-20T10:11:32.637Z,24.81
2018-06-20T10:12:42.060Z,24.78
2018-06-20T10:13:51.777Z,24.81
2018-06-20T10:15:01.459Z,24.8
2018-06-20T10:16:10.625Z,24.78
2018-06-20T10:17:20.064Z,24.96
2018-06-20T10:18:29.488Z,24.78
2018-06-20T10:19:38.918Z,24.85
2018-06-20T10:20:48.074Z,24.78
2018-06-20T10:21:57.542Z,24.83
2018-06-20T10:23:06.719Z,24.84
2018-06-20T10:24:16.457Z,24.81
2018-06-20T10:25:25.905Z,24.78
2018-06-20T10:26:35.860Z,24.83
2018-06-20T10:27:44.782Z,24.81
2018-06-20T10:28:54.210Z,24.81
2018-06-20T10:30:03.112Z,24.8
2018-06-20T10:31:12.291Z,24.81
2018-06-20T10:32:21.983Z,24.85
2018-06-20T10:33:31.164Z,24.81
2018-06-20T10:34:39.863Z,24.81
2018-06-20T10:35:48.783Z,24.81
2018-06-20T10:36:58.491Z,24.85
2018-06-20T10:38:08.196Z,24.77
2018-06-20T10:39:17.634Z,24.81
2018-06-20T10:40:27.566Z,24.84
2018-06-20T10:41:37.056Z,24.78
2018-06-20T10:42:46.472Z,24.78
2018-06-20T10:43:55.642Z,24.78
2018-06-20T10:45:05.068Z,24.83
2018-06-20T10:46:15.498Z,24.81
2018-06-20T10:47:24.991Z,24.83
2018-06-20T10:48:33.912Z,24.84
2018-06-20T10:49:42.818Z,24.88
2018-06-20T10:50:51.993Z,24.83
2018-06-20T10:52:01.455Z,24.9
2018-06-20T10:53:10.632Z,24.91
2018-06-20T10:54:20.149Z,24.81
2018-06-20T10:55:30.042Z,24.81
2018-06-20T10:56:39.209Z,24.81
2018-06-20T10:57:48.882Z,24.8
2018-06-20T10:58:58.839Z,24.91
2018-06-20T11:00:08.270Z,24.87
2018-06-20T11:01:17.995Z,24.95
2018-06-20T11:02:27.967Z,24.9
2018-06-20T11:03:37.407Z,24.8
2018-06-20T11:04:47.068Z,24.81
2018-06-20T11:05:56.233Z,24.84
2018-06-20T11:07:06.074Z,24.9
2018-06-20T11:08:16.104Z,24.93
2018-06-20T11:09:25.271Z,24.93
2018-06-20T11:10:34.454Z,24.87
2018-06-20T11:11:44.393Z,24.9
2018-06-20T11:12:53.569Z,24.95
2018-06-20T11:14:02.841Z,24.88
2018-06-20T11:15:12.260Z,24.85
2018-06-20T11:16:21.468Z,24.95
2018-06-20T11:17:31.460Z,24.96
2018-06-20T11:18:40.632Z,24.93
2018-06-20T11:19:49.856Z,24.87
2018-06-20T11:20:59.025Z,24.88
2018-06-20T11:22:08.702Z,24.93
2018-06-20T11:23:18.267Z,24.95
2018-06-20T11:24:27.928Z,24.88
2018-06-20T11:25:37.372Z,24.93
2018-06-20T11:26:46.798Z,24.83
2018-06-20T11:27:56.235Z,24.95
2018-06-20T11:29:05.410Z,24.95
2018-06-20T11:30:14.327Z,24.96
2018-06-20T11:31:23.537Z,24.91
2018-06-20T11:32:32.450Z,24.81
2018-06-20T11:33:41.883Z,24.95
2018-06-20T11:34:51.566Z,24.93
2018-06-20T11:36:01.251Z,24.99
2018-06-20T11:37:10.683Z,24.83
2018-06-20T11:38:20.651Z,24.96
2018-06-20T11:39:30.493Z,24.91
2018-06-20T11:40:40.172Z,24.93
2018-06-20T11:41:49.865Z,24.96
2018-06-20T11:42:59.049Z,24.91
2018-06-20T11:44:08.500Z,24.96
2018-06-20T11:45:17.931Z,24.88
2018-06-20T11:46:27.367Z,24.9
2018-06-20T11:47:37.328Z,24.95
2018-06-20T11:48:47.031Z,24.88
2018-06-20T11:49:56.550Z,24.96
2018-06-20T11:51:06.559Z,24.95
2018-06-20T11:52:16.262Z,24.9
2018-06-20T11:53:25.700Z,24.88
2018-06-20T11:54:34.862Z,24.91
2018-06-20T11:55:44.306Z,24.93
2018-06-20T11:56:53.978Z,24.95
2018-06-20T11:58:03.455Z,24.93
2018-06-20T11:59:12.866Z,24.9
2018-06-20T12:00:22.559Z,24.93
2018-06-20T12:01:31.969Z,24.93
2018-06-20T12:02:41.388Z,24.88
2018-06-20T12:03:50.882Z,24.95
2018-06-20T12:05:00.391Z,24.95
2018-06-20T12:06:09.805Z,24.95
2018-06-20T12:07:18.985Z,24.87
2018-06-20T12:08:27.918Z,24.91
2018-06-20T12:09:37.347Z,24.98
2018-06-20T12:10:46.774Z,24.91
2018-06-20T12:11:55.956Z,24.93
2018-06-20T12:13:05.379Z,24.93
2018-06-20T12:14:14.808Z,24.93
2018-06-20T12:15:24.237Z,24.91
2018-06-20T12:16:33.173Z,24.95
2018-06-20T12:17:42.109Z,24.91
2018-06-20T12:18:51.010Z,24.95
2018-06-20T12:20:00.740Z,24.96
2018-06-20T12:21:10.426Z,24.96
2018-06-20T12:22:19.854Z,24.93
2018-06-20T12:23:29.541Z,24.9
2018-06-20T12:24:38.965Z,24.96
2018-06-20T12:25:48.145Z,24.9
2018-06-20T12:26:57.582Z,24.96
2018-06-20T12:28:06.505Z,24.91
2018-06-20T12:29:16.340Z,24.91
2018-06-20T12:30:25.263Z,24.95
2018-06-20T12:31:34.432Z,24.95
2018-06-20T12:32:43.866Z,24.91
2018-06-20T12:33:53.560Z,24.93
2018-06-20T12:35:02.734Z,24.95
2018-06-20T12:36:12.399Z,24.95
2018-06-20T12:37:21.812Z,24.95
2018-06-20T12:38:30.969Z,24.91
2018-06-20T12:39:40.141Z,25.02
2018-06-20T12:40:49.408Z,24.96
2018-06-20T12:41:58.668Z,25
2018-06-20T12:43:08.355Z,24.95
2018-06-20T12:44:18.030Z,24.96
2018-06-20T12:45:27.211Z,25
2018-06-20T12:46:36.655Z,24.99
2018-06-20T12:47:46.105Z,24.98
2018-06-20T12:48:55.546Z,25.02
2018-06-20T12:50:04.727Z,24.99
2018-06-20T12:51:13.630Z,24.91
2018-06-20T12:52:22.801Z,24.98
2018-06-20T12:53:32.567Z,24.96
2018-06-20T12:54:42.571Z,24.98
2018-06-20T12:55:52.256Z,24.9
2018-06-20T12:57:01.679Z,25.05
2018-06-20T12:58:10.859Z,25.02
2018-06-20T12:59:20.320Z,25.02
2018-06-20T13:00:29.755Z,24.96
2018-06-20T13:01:38.928Z,24.96
2018-06-20T13:02:48.607Z,25
2018-06-20T13:03:58.090Z,24.95
2018-06-20T13:05:07.781Z,25.06
2018-06-20T13:06:17.204Z,25.05
2018-06-20T13:07:26.628Z,24.99
2018-06-20T13:08:36.073Z,25.03
2018-06-20T13:09:46.021Z,25.06
2018-06-20T13:10:56.007Z,25.03
2018-06-20T13:12:05.481Z,24.99
2018-06-20T13:13:14.668Z,25.02
2018-06-20T13:14:24.321Z,25
2018-06-20T13:15:33.229Z,25.06
2018-06-20T13:16:42.895Z,25.08
2018-06-20T13:17:51.800Z,25.1
2018-06-20T13:19:01.214Z,25
2018-06-20T13:20:10.789Z,25.06
2018-06-20T13:21:20.554Z,25.1
2018-06-20T13:22:30.314Z,25.1
2018-06-20T13:23:39.219Z,25.08
2018-06-20T13:24:48.391Z,25.05
2018-06-20T13:25:57.299Z,25.08
2018-06-20T13:27:06.982Z,25.08
2018-06-20T13:28:16.169Z,25.09
2018-06-20T13:29:25.333Z,25.09
2018-06-20T13:30:34.786Z,25.1
2018-06-20T13:31:44.232Z,25.13
2018-06-20T13:32:53.402Z,25.13
2018-06-20T13:34:02.569Z,25.08
2018-06-20T13:35:12.534Z,25.17
2018-06-20T13:36:22.496Z,25.17
2018-06-20T13:37:31.672Z,25.18
2018-06-20T13:38:41.366Z,25.17
2018-06-20T13:39:50.632Z,25.14
2018-06-20T13:40:59.637Z,25.15
2018-06-20T13:42:09.351Z,25.15
2018-06-20T13:43:18.523Z,25.2
2018-06-20T13:44:27.955Z,25.21
2018-06-20T13:45:37.131Z,25.23
2018-06-20T13:46:46.578Z,25.23
2018-06-20T13:47:55.997Z,25.2
2018-06-20T13:49:05.174Z,25.28
2018-06-20T13:50:14.835Z,25.24
2018-06-20T13:51:24.025Z,25.21
2018-06-20T13:52:33.699Z,25.25
2018-06-20T13:53:42.868Z,25.25
2018-06-20T13:54:52.033Z,25.25
2018-06-20T13:56:01.781Z,25.3
2018-06-20T13:57:11.860Z,25.2
2018-06-20T13:58:21.314Z,25.27
2018-06-20T13:59:30.257Z,25.2
2018-06-20T14:00:39.429Z,25.28
2018-06-20T14:01:48.861Z,25.3
2018-06-20T14:02:58.361Z,25.21
2018-06-20T14:04:08.245Z,25.23
2018-06-20T14:05:17.483Z,25.25
2018-06-20T14:06:26.421Z,25.25
2018-06-20T14:07:35.704Z,25.25
2018-06-20T14:08:44.983Z,25.23
2018-06-20T14:09:54.483Z,25.28
2018-06-20T14:11:04.042Z,25.18
2018-06-20T14:12:13.223Z,25.3
2018-06-20T14:13:22.898Z,25.21
2018-06-20T14:14:32.316Z,25.2
2018-06-20T14:15:41.737Z,25.21
2018-06-20T14:16:51.403Z,25.3
2018-06-20T14:18:00.900Z,25.25
2018-06-20T14:19:10.069Z,25.28
2018-06-20T14:20:19.514Z,25.3
2018-06-20T14:21:28.956Z,25.3
2018-06-20T14:22:38.912Z,25.3
2018-06-20T14:23:48.070Z,25.32
2018-06-20T14:24:57.516Z,25.3
2018-06-20T14:26:06.483Z,25.25
2018-06-20T14:27:15.633Z,25.24
2018-06-20T14:28:25.085Z,25.27
2018-06-20T14:29:34.298Z,25.38
2018-06-20T14:30:44.301Z,25.36
2018-06-20T14:31:53.488Z,25.33
2018-06-20T14:33:03.180Z,25.32
2018-06-20T14:34:13.118Z,25.4
2018-06-20T14:35:22.033Z,25.38
2018-06-20T14:36:30.971Z,25.39
2018-06-20T14:37:40.432Z,25.39
2018-06-20T14:38:50.250Z,25.28
2018-06-20T14:40:00.043Z,25.36
2018-06-20T14:41:09.203Z,25.39
2018-06-20T14:42:18.629Z,25.33
2018-06-20T14:43:28.057Z,25.33
2018-06-20T14:44:37.233Z,25.32
2018-06-20T14:45:46.398Z,25.3
2018-06-20T14:46:56.108Z,25.33
2018-06-20T14:48:06.198Z,25.39
2018-06-20T14:49:15.888Z,25.33
2018-06-20T14:50:25.347Z,25.32
2018-06-20T14:51:34.778Z,25.35
2018-06-20T14:52:44.229Z,25.33
2018-06-20T14:53:53.928Z,25.32
2018-06-20T14:55:03.101Z,25.3
2018-06-20T14:56:12.525Z,25.39
2018-06-20T14:57:21.686Z,25.25